sensor_id;sensor_type;location;lat;lon;timestamp;temperature;humidity
7232;DHT22;3657;49.630;11.018;2022-09-23T00:01:47;10.50;98.50
7232;DHT22;3657;49.630;11.018;2022-09-23T00:04:13;10.40;98.50
7232;DHT22;3657;49.630;11.018;2022-09-23T00:06:41;10.40;98.50
7232;DHT22;3657;49.630;11.018;2022-09-23T00:09:09;10.40;98.50
7232;DHT22;3657;49.630;11.018;2022-09-23T00:11:36;10.40;98.50
7232;DHT22;3657;49.630;11.018;2022-09-23T00:14:02;10.30;98.40
7232;DHT22;3657;49.630;11.018;2022-09-23T00:16:31;10.30;98.40
7232;DHT22;3657;49.630;11.018;2022-09-23T00:18:58;10.30;98.40
7232;DHT22;3657;49.630;11.018;2022-09-23T00:21:25;10.30;98.40
7232;DHT22;3657;49.630;11.018;2022-09-23T00:23:53;10.30;98.40
7232;DHT22;3657;49.630;11.018;2022-09-23T00:26:21;10.20;98.40
7232;DHT22;3657;49.630;11.018;2022-09-23T00:28:48;10.20;98.40
7232;DHT22;3657;49.630;11.018;2022-09-23T00:31:17;10.20;98.40
7232;DHT22;3657;49.630;11.018;2022-09-23T00:33:44;10.20;98.40
7232;DHT22;3657;49.630;11.018;2022-09-23T00:36:13;10.10;98.40
7232;DHT22;3657;49.630;11.018;2022-09-23T00:38:41;10.10;98.30
7232;DHT22;3657;49.630;11.018;2022-09-23T00:41:09;10.10;98.30
7232;DHT22;3657;49.630;11.018;2022-09-23T00:43:39;10.10;98.30
7232;DHT22;3657;49.630;11.018;2022-09-23T00:46:08;10.10;98.40
7232;DHT22;3657;49.630;11.018;2022-09-23T00:48:37;10.00;98.30
7232;DHT22;3657;49.630;11.018;2022-09-23T00:51:06;10.00;98.40
7232;DHT22;3657;49.630;11.018;2022-09-23T00:53:34;10.00;98.40
7232;DHT22;3657;49.630;11.018;2022-09-23T00:56:03;10.00;98.40
7232;DHT22;3657;49.630;11.018;2022-09-23T00:58:35;10.00;98.40
7232;DHT22;3657;49.630;11.018;2022-09-23T01:01:03;9.90;99.00
7232;DHT22;3657;49.630;11.018;2022-09-23T01:03:30;9.90;99.20
7232;DHT22;3657;49.630;11.018;2022-09-23T01:05:57;9.90;99.00
7232;DHT22;3657;49.630;11.018;2022-09-23T01:08:25;9.90;99.00
7232;DHT22;3657;49.630;11.018;2022-09-23T01:10:59;9.90;99.00
7232;DHT22;3657;49.630;11.018;2022-09-23T01:13:34;9.80;98.90
7232;DHT22;3657;49.630;11.018;2022-09-23T01:16:07;9.80;98.90
7232;DHT22;3657;49.630;11.018;2022-09-23T01:18:41;9.80;99.00
7232;DHT22;3657;49.630;11.018;2022-09-23T01:21:15;9.80;99.00
7232;DHT22;3657;49.630;11.018;2022-09-23T01:24:07;9.70;99.00
7232;DHT22;3657;49.630;11.018;2022-09-23T01:26:52;9.70;98.90
7232;DHT22;3657;49.630;11.018;2022-09-23T01:29:52;9.70;98.90
7232;DHT22;3657;49.630;11.018;2022-09-23T01:32:31;9.70;99.00
7232;DHT22;3657;49.630;11.018;2022-09-23T01:35:06;9.60;99.00
7232;DHT22;3657;49.630;11.018;2022-09-23T01:37:39;9.60;98.90
7232;DHT22;3657;49.630;11.018;2022-09-23T01:40:13;9.60;98.90
7232;DHT22;3657;49.630;11.018;2022-09-23T01:42:45;9.60;98.90
7232;DHT22;3657;49.630;11.018;2022-09-23T01:45:16;9.50;98.90
7232;DHT22;3657;49.630;11.018;2022-09-23T01:47:50;9.50;98.90
7232;DHT22;3657;49.630;11.018;2022-09-23T01:50:22;9.50;98.90
7232;DHT22;3657;49.630;11.018;2022-09-23T01:53:11;9.50;98.90
7232;DHT22;3657;49.630;11.018;2022-09-23T01:55:43;9.50;98.90
7232;DHT22;3657;49.630;11.018;2022-09-23T01:58:17;9.50;98.90
7232;DHT22;3657;49.630;11.018;2022-09-23T02:00:50;9.40;98.90
7232;DHT22;3657;49.630;11.018;2022-09-23T02:03:22;9.40;98.90
7232;DHT22;3657;49.630;11.018;2022-09-23T02:05:57;9.40;99.00
7232;DHT22;3657;49.630;11.018;2022-09-23T02:08:29;9.40;99.00
7232;DHT22;3657;49.630;11.018;2022-09-23T02:11:00;9.30;98.90
7232;DHT22;3657;49.630;11.018;2022-09-23T02:13:31;9.30;98.90
7232;DHT22;3657;49.630;11.018;2022-09-23T02:16:05;9.30;98.90
7232;DHT22;3657;49.630;11.018;2022-09-23T02:18:39;9.30;99.00
7232;DHT22;3657;49.630;11.018;2022-09-23T02:21:11;9.30;98.90
7232;DHT22;3657;49.630;11.018;2022-09-23T02:23:43;9.30;98.90
7232;DHT22;3657;49.630;11.018;2022-09-23T02:26:15;9.20;98.90
7232;DHT22;3657;49.630;11.018;2022-09-23T02:28:48;9.20;98.90
7232;DHT22;3657;49.630;11.018;2022-09-23T02:31:20;9.20;98.90
7232;DHT22;3657;49.630;11.018;2022-09-23T02:33:54;9.20;98.90
7232;DHT22;3657;49.630;11.018;2022-09-23T02:36:28;9.10;98.80
7232;DHT22;3657;49.630;11.018;2022-09-23T02:38:59;9.10;98.90
7232;DHT22;3657;49.630;11.018;2022-09-23T02:41:31;9.10;98.90
7232;DHT22;3657;49.630;11.018;2022-09-23T02:44:03;9.10;98.90
7232;DHT22;3657;49.630;11.018;2022-09-23T02:46:31;9.10;98.90
7232;DHT22;3657;49.630;11.018;2022-09-23T02:49:03;9.10;99.10
7232;DHT22;3657;49.630;11.018;2022-09-23T02:51:32;9.00;98.90
7232;DHT22;3657;49.630;11.018;2022-09-23T02:54:03;9.00;98.90
7232;DHT22;3657;49.630;11.018;2022-09-23T02:56:32;9.00;98.90
7232;DHT22;3657;49.630;11.018;2022-09-23T02:58:59;9.00;98.90
7232;DHT22;3657;49.630;11.018;2022-09-23T03:01:35;9.00;98.90
7232;DHT22;3657;49.630;11.018;2022-09-23T03:04:12;8.90;98.80
7232;DHT22;3657;49.630;11.018;2022-09-23T03:06:49;8.90;98.80
7232;DHT22;3657;49.630;11.018;2022-09-23T03:09:21;8.90;98.90
7232;DHT22;3657;49.630;11.018;2022-09-23T03:11:56;8.90;98.80
7232;DHT22;3657;49.630;11.018;2022-09-23T03:14:28;8.90;98.90
7232;DHT22;3657;49.630;11.018;2022-09-23T03:17:02;8.80;98.80
7232;DHT22;3657;49.630;11.018;2022-09-23T03:19:34;8.80;98.80
7232;DHT22;3657;49.630;11.018;2022-09-23T03:22:05;8.80;98.90
7232;DHT22;3657;49.630;11.018;2022-09-23T03:24:35;8.80;98.90
7232;DHT22;3657;49.630;11.018;2022-09-23T03:27:07;8.70;98.80
7232;DHT22;3657;49.630;11.018;2022-09-23T03:29:38;8.70;98.80
7232;DHT22;3657;49.630;11.018;2022-09-23T03:32:06;8.70;98.80
7232;DHT22;3657;49.630;11.018;2022-09-23T03:34:35;8.70;98.80
7232;DHT22;3657;49.630;11.018;2022-09-23T03:37:08;8.70;98.80
7232;DHT22;3657;49.630;11.018;2022-09-23T03:39:39;8.70;98.90
7232;DHT22;3657;49.630;11.018;2022-09-23T03:42:11;8.60;98.80
7232;DHT22;3657;49.630;11.018;2022-09-23T03:44:42;8.60;98.80
7232;DHT22;3657;49.630;11.018;2022-09-23T03:47:10;8.60;98.80
7232;DHT22;3657;49.630;11.018;2022-09-23T03:49:41;8.60;98.80
7232;DHT22;3657;49.630;11.018;2022-09-23T03:52:09;8.60;98.90
7232;DHT22;3657;49.630;11.018;2022-09-23T03:54:35;8.60;98.90
7232;DHT22;3657;49.630;11.018;2022-09-23T03:57:02;8.50;98.80
7232;DHT22;3657;49.630;11.018;2022-09-23T03:59:29;8.50;98.80
7232;DHT22;3657;49.630;11.018;2022-09-23T04:01:56;8.50;98.80
7232;DHT22;3657;49.630;11.018;2022-09-23T04:04:24;8.50;98.80
7232;DHT22;3657;49.630;11.018;2022-09-23T04:06:53;8.40;98.80
7232;DHT22;3657;49.630;11.018;2022-09-23T04:09:19;8.50;98.80
7232;DHT22;3657;49.630;11.018;2022-09-23T04:11:47;8.40;98.80
7232;DHT22;3657;49.630;11.018;2022-09-23T04:14:14;8.40;98.80
7232;DHT22;3657;49.630;11.018;2022-09-23T04:16:41;8.40;98.80
7232;DHT22;3657;49.630;11.018;2022-09-23T04:19:08;8.40;98.80
7232;DHT22;3657;49.630;11.018;2022-09-23T04:21:35;8.30;98.80
7232;DHT22;3657;49.630;11.018;2022-09-23T04:24:03;8.30;98.80
7232;DHT22;3657;49.630;11.018;2022-09-23T04:26:30;8.30;98.80
7232;DHT22;3657;49.630;11.018;2022-09-23T04:28:57;8.30;98.80
7232;DHT22;3657;49.630;11.018;2022-09-23T04:31:24;8.30;98.80
7232;DHT22;3657;49.630;11.018;2022-09-23T04:33:52;8.30;98.80
7232;DHT22;3657;49.630;11.018;2022-09-23T04:36:19;8.30;98.80
7232;DHT22;3657;49.630;11.018;2022-09-23T04:38:46;8.30;98.80
7232;DHT22;3657;49.630;11.018;2022-09-23T04:41:15;8.20;98.70
7232;DHT22;3657;49.630;11.018;2022-09-23T04:43:41;8.20;98.80
7232;DHT22;3657;49.630;11.018;2022-09-23T04:46:11;8.20;98.80
7232;DHT22;3657;49.630;11.018;2022-09-23T04:48:38;8.20;98.80
7232;DHT22;3657;49.630;11.018;2022-09-23T04:51:07;8.20;98.80
7232;DHT22;3657;49.630;11.018;2022-09-23T04:53:36;8.20;98.80
7232;DHT22;3657;49.630;11.018;2022-09-23T04:56:04;8.10;98.70
7232;DHT22;3657;49.630;11.018;2022-09-23T04:58:33;8.10;98.70
7232;DHT22;3657;49.630;11.018;2022-09-23T05:01:07;8.10;98.70
7232;DHT22;3657;49.630;11.018;2022-09-23T05:03:34;8.10;98.80
7232;DHT22;3657;49.630;11.018;2022-09-23T05:06:01;8.10;98.70
7232;DHT22;3657;49.630;11.018;2022-09-23T05:08:27;8.10;98.80
7232;DHT22;3657;49.630;11.018;2022-09-23T05:10:56;8.10;98.70
7232;DHT22;3657;49.630;11.018;2022-09-23T05:13:23;8.10;98.80
7232;DHT22;3657;49.630;11.018;2022-09-23T05:15:57;8.00;98.70
7232;DHT22;3657;49.630;11.018;2022-09-23T05:18:24;8.00;98.70
7232;DHT22;3657;49.630;11.018;2022-09-23T05:20:52;8.00;98.70
7232;DHT22;3657;49.630;11.018;2022-09-23T05:23:19;8.00;98.70
7232;DHT22;3657;49.630;11.018;2022-09-23T05:25:46;8.00;98.70
7232;DHT22;3657;49.630;11.018;2022-09-23T05:28:13;7.90;98.60
7232;DHT22;3657;49.630;11.018;2022-09-23T05:30:44;8.00;98.50
7232;DHT22;3657;49.630;11.018;2022-09-23T05:33:12;8.00;98.40
7232;DHT22;3657;49.630;11.018;2022-09-23T05:35:45;8.10;98.20
7232;DHT22;3657;49.630;11.018;2022-09-23T05:38:12;8.20;98.00
7232;DHT22;3657;49.630;11.018;2022-09-23T05:40:40;8.30;97.80
7232;DHT22;3657;49.630;11.018;2022-09-23T05:43:07;8.40;97.60
7232;DHT22;3657;49.630;11.018;2022-09-23T05:45:34;8.50;97.40
7232;DHT22;3657;49.630;11.018;2022-09-23T05:48:01;8.60;97.30
7232;DHT22;3657;49.630;11.018;2022-09-23T05:50:29;8.60;97.10
7232;DHT22;3657;49.630;11.018;2022-09-23T05:52:56;8.70;97.00
7232;DHT22;3657;49.630;11.018;2022-09-23T05:55:22;8.70;96.90
7232;DHT22;3657;49.630;11.018;2022-09-23T05:57:49;8.70;96.80
7232;DHT22;3657;49.630;11.018;2022-09-23T06:00:16;8.70;96.70
7232;DHT22;3657;49.630;11.018;2022-09-23T06:02:42;8.70;96.60
7232;DHT22;3657;49.630;11.018;2022-09-23T06:05:09;8.80;96.70
7232;DHT22;3657;49.630;11.018;2022-09-23T06:07:37;8.80;96.60
7232;DHT22;3657;49.630;11.018;2022-09-23T06:10:05;8.90;96.50
7232;DHT22;3657;49.630;11.018;2022-09-23T06:12:32;8.90;96.50
7232;DHT22;3657;49.630;11.018;2022-09-23T06:14:59;9.10;96.40
7232;DHT22;3657;49.630;11.018;2022-09-23T06:17:25;9.20;96.20
7232;DHT22;3657;49.630;11.018;2022-09-23T06:19:52;9.30;96.40
7232;DHT22;3657;49.630;11.018;2022-09-23T06:22:19;9.50;96.60
7232;DHT22;3657;49.630;11.018;2022-09-23T06:24:47;9.50;96.50
7232;DHT22;3657;49.630;11.018;2022-09-23T06:27:13;9.60;96.20
7232;DHT22;3657;49.630;11.018;2022-09-23T06:29:40;9.70;96.10
7232;DHT22;3657;49.630;11.018;2022-09-23T06:32:07;9.80;96.00
7232;DHT22;3657;49.630;11.018;2022-09-23T06:34:33;9.90;95.90
7232;DHT22;3657;49.630;11.018;2022-09-23T06:37:00;9.90;95.80
7232;DHT22;3657;49.630;11.018;2022-09-23T06:39:26;10.00;96.60
7232;DHT22;3657;49.630;11.018;2022-09-23T06:41:55;10.00;96.90
7232;DHT22;3657;49.630;11.018;2022-09-23T06:44:22;10.20;95.50
7232;DHT22;3657;49.630;11.018;2022-09-23T06:46:49;10.20;95.70
7232;DHT22;3657;49.630;11.018;2022-09-23T06:49:16;10.40;95.40
7232;DHT22;3657;49.630;11.018;2022-09-23T06:51:44;10.40;95.20
7232;DHT22;3657;49.630;11.018;2022-09-23T06:54:11;10.50;95.50
7232;DHT22;3657;49.630;11.018;2022-09-23T06:56:38;10.50;96.90
7232;DHT22;3657;49.630;11.018;2022-09-23T06:59:08;10.70;96.20
7232;DHT22;3657;49.630;11.018;2022-09-23T07:01:35;10.80;96.40
7232;DHT22;3657;49.630;11.018;2022-09-23T07:04:02;11.00;97.40
7232;DHT22;3657;49.630;11.018;2022-09-23T07:06:29;11.10;97.20
7232;DHT22;3657;49.630;11.018;2022-09-23T07:08:55;11.20;96.50
7232;DHT22;3657;49.630;11.018;2022-09-23T07:11:22;11.30;95.40
7232;DHT22;3657;49.630;11.018;2022-09-23T07:13:49;11.40;95.10
7232;DHT22;3657;49.630;11.018;2022-09-23T07:16:17;11.40;94.40
7232;DHT22;3657;49.630;11.018;2022-09-23T07:18:43;11.50;96.60
7232;DHT22;3657;49.630;11.018;2022-09-23T07:21:12;11.60;96.50
7232;DHT22;3657;49.630;11.018;2022-09-23T07:23:39;11.70;97.00
7232;DHT22;3657;49.630;11.018;2022-09-23T07:26:06;11.80;94.40
7232;DHT22;3657;49.630;11.018;2022-09-23T07:28:33;11.90;95.00
7232;DHT22;3657;49.630;11.018;2022-09-23T07:31:02;11.90;97.90
7232;DHT22;3657;49.630;11.018;2022-09-23T07:33:32;12.00;96.00
7232;DHT22;3657;49.630;11.018;2022-09-23T07:36:03;12.20;95.90
7232;DHT22;3657;49.630;11.018;2022-09-23T07:38:30;12.40;94.50
7232;DHT22;3657;49.630;11.018;2022-09-23T07:41:00;12.40;95.40
7232;DHT22;3657;49.630;11.018;2022-09-23T07:43:28;12.50;97.90
7232;DHT22;3657;49.630;11.018;2022-09-23T07:45:57;12.80;97.50
7232;DHT22;3657;49.630;11.018;2022-09-23T07:48:24;13.00;98.00
7232;DHT22;3657;49.630;11.018;2022-09-23T07:50:52;13.10;95.00
7232;DHT22;3657;49.630;11.018;2022-09-23T07:53:19;13.10;94.50
7232;DHT22;3657;49.630;11.018;2022-09-23T07:55:51;13.40;96.90
7232;DHT22;3657;49.630;11.018;2022-09-23T07:58:18;13.50;95.50
7232;DHT22;3657;49.630;11.018;2022-09-23T08:00:44;13.50;96.00
7232;DHT22;3657;49.630;11.018;2022-09-23T08:03:11;13.50;96.50
7232;DHT22;3657;49.630;11.018;2022-09-23T08:05:39;13.70;96.40
7232;DHT22;3657;49.630;11.018;2022-09-23T08:08:07;13.70;96.40
7232;DHT22;3657;49.630;11.018;2022-09-23T08:10:34;13.80;96.00
7232;DHT22;3657;49.630;11.018;2022-09-23T08:13:01;13.90;95.60
7232;DHT22;3657;49.630;11.018;2022-09-23T08:15:28;14.00;96.20
7232;DHT22;3657;49.630;11.018;2022-09-23T08:17:57;14.10;95.80
7232;DHT22;3657;49.630;11.018;2022-09-23T08:20:24;14.20;96.50
7232;DHT22;3657;49.630;11.018;2022-09-23T08:23:10;14.30;96.00
7232;DHT22;3657;49.630;11.018;2022-09-23T08:25:37;14.40;95.90
7232;DHT22;3657;49.630;11.018;2022-09-23T08:28:04;14.60;96.50
7232;DHT22;3657;49.630;11.018;2022-09-23T08:30:31;15.10;97.00
7232;DHT22;3657;49.630;11.018;2022-09-23T08:32:57;15.30;96.00
7232;DHT22;3657;49.630;11.018;2022-09-23T08:35:24;15.50;96.00
7232;DHT22;3657;49.630;11.018;2022-09-23T08:37:50;15.60;96.60
7232;DHT22;3657;49.630;11.018;2022-09-23T08:40:18;15.80;96.40
7232;DHT22;3657;49.630;11.018;2022-09-23T08:42:45;15.90;96.30
7232;DHT22;3657;49.630;11.018;2022-09-23T08:45:16;16.00;96.00
7232;DHT22;3657;49.630;11.018;2022-09-23T08:47:48;16.10;96.20
7232;DHT22;3657;49.630;11.018;2022-09-23T08:50:18;16.10;95.90
7232;DHT22;3657;49.630;11.018;2022-09-23T08:52:48;15.90;96.50
7232;DHT22;3657;49.630;11.018;2022-09-23T08:55:19;15.90;96.30
7232;DHT22;3657;49.630;11.018;2022-09-23T08:58:00;16.00;95.90
7232;DHT22;3657;49.630;11.018;2022-09-23T09:00:34;16.20;96.10
7232;DHT22;3657;49.630;11.018;2022-09-23T09:03:07;16.50;95.20
7232;DHT22;3657;49.630;11.018;2022-09-23T09:05:38;17.00;94.60
7232;DHT22;3657;49.630;11.018;2022-09-23T09:08:05;17.20;94.40
7232;DHT22;3657;49.630;11.018;2022-09-23T09:10:39;17.50;94.70
7232;DHT22;3657;49.630;11.018;2022-09-23T09:13:15;17.50;93.40
7232;DHT22;3657;49.630;11.018;2022-09-23T09:15:56;17.60;93.40
7232;DHT22;3657;49.630;11.018;2022-09-23T09:18:26;17.70;94.60
7232;DHT22;3657;49.630;11.018;2022-09-23T09:20:58;17.60;93.00
7232;DHT22;3657;49.630;11.018;2022-09-23T09:23:39;17.30;93.20
7232;DHT22;3657;49.630;11.018;2022-09-23T09:26:13;17.40;93.70
7232;DHT22;3657;49.630;11.018;2022-09-23T09:28:45;17.30;92.20
7232;DHT22;3657;49.630;11.018;2022-09-23T09:31:20;17.50;92.50
7232;DHT22;3657;49.630;11.018;2022-09-23T09:33:53;17.40;91.60
7232;DHT22;3657;49.630;11.018;2022-09-23T09:36:28;17.70;93.20
7232;DHT22;3657;49.630;11.018;2022-09-23T09:38:57;18.00;92.90
7232;DHT22;3657;49.630;11.018;2022-09-23T09:41:27;18.30;93.90
7232;DHT22;3657;49.630;11.018;2022-09-23T09:43:55;18.60;93.00
7232;DHT22;3657;49.630;11.018;2022-09-23T09:46:49;18.70;92.80
7232;DHT22;3657;49.630;11.018;2022-09-23T09:49:26;18.80;91.00
7232;DHT22;3657;49.630;11.018;2022-09-23T09:52:11;19.00;91.50
7232;DHT22;3657;49.630;11.018;2022-09-23T09:54:38;19.00;91.20
7232;DHT22;3657;49.630;11.018;2022-09-23T09:57:14;19.10;93.90
7232;DHT22;3657;49.630;11.018;2022-09-23T09:59:42;19.20;91.50
7232;DHT22;3657;49.630;11.018;2022-09-23T10:02:21;19.00;92.10
7232;DHT22;3657;49.630;11.018;2022-09-23T10:04:55;19.20;91.80
7232;DHT22;3657;49.630;11.018;2022-09-23T10:07:25;19.40;92.30
7232;DHT22;3657;49.630;11.018;2022-09-23T10:09:52;19.40;93.00
7232;DHT22;3657;49.630;11.018;2022-09-23T10:12:22;19.50;90.80
7232;DHT22;3657;49.630;11.018;2022-09-23T10:14:50;19.60;92.70
7232;DHT22;3657;49.630;11.018;2022-09-23T10:17:20;19.80;94.90
7232;DHT22;3657;49.630;11.018;2022-09-23T10:19:49;19.90;93.50
7232;DHT22;3657;49.630;11.018;2022-09-23T10:22:20;20.00;93.40
7232;DHT22;3657;49.630;11.018;2022-09-23T10:24:49;19.90;90.00
7232;DHT22;3657;49.630;11.018;2022-09-23T10:27:27;19.80;86.60
7232;DHT22;3657;49.630;11.018;2022-09-23T10:29:56;19.90;87.50
7232;DHT22;3657;49.630;11.018;2022-09-23T10:32:29;20.00;91.30
7232;DHT22;3657;49.630;11.018;2022-09-23T10:35:00;19.80;84.20
7232;DHT22;3657;49.630;11.018;2022-09-23T10:37:34;20.00;81.60
7232;DHT22;3657;49.630;11.018;2022-09-23T10:40:12;20.00;92.60
7232;DHT22;3657;49.630;11.018;2022-09-23T10:43:10;20.30;91.00
7232;DHT22;3657;49.630;11.018;2022-09-23T10:46:00;20.70;93.70
7232;DHT22;3657;49.630;11.018;2022-09-23T10:48:56;21.00;88.60
7232;DHT22;3657;49.630;11.018;2022-09-23T10:51:33;21.20;92.80
7232;DHT22;3657;49.630;11.018;2022-09-23T10:54:11;21.40;85.20
7232;DHT22;3657;49.630;11.018;2022-09-23T10:56:46;21.20;76.80
7232;DHT22;3657;49.630;11.018;2022-09-23T11:02:28;20.90;85.40
7232;DHT22;3657;49.630;11.018;2022-09-23T11:05:18;21.10;86.70
7232;DHT22;3657;49.630;11.018;2022-09-23T11:07:52;21.20;88.80
7232;DHT22;3657;49.630;11.018;2022-09-23T11:10:52;21.30;90.60
7232;DHT22;3657;49.630;11.018;2022-09-23T11:13:34;21.40;82.10
7232;DHT22;3657;49.630;11.018;2022-09-23T11:16:13;21.20;78.30
7232;DHT22;3657;49.630;11.018;2022-09-23T11:18:54;21.20;92.90
7232;DHT22;3657;49.630;11.018;2022-09-23T11:21:42;21.20;92.90
7232;DHT22;3657;49.630;11.018;2022-09-23T11:24:37;21.20;92.20
7232;DHT22;3657;49.630;11.018;2022-09-23T11:27:10;21.10;91.50
7232;DHT22;3657;49.630;11.018;2022-09-23T11:30:09;21.10;93.30
7232;DHT22;3657;49.630;11.018;2022-09-23T11:35:32;20.80;90.70
7232;DHT22;3657;49.630;11.018;2022-09-23T11:38:04;20.90;92.20
7232;DHT22;3657;49.630;11.018;2022-09-23T11:40:35;20.60;84.60
7232;DHT22;3657;49.630;11.018;2022-09-23T11:43:04;19.90;75.50
7232;DHT22;3657;49.630;11.018;2022-09-23T11:45:34;20.00;82.20
7232;DHT22;3657;49.630;11.018;2022-09-23T11:48:10;20.30;90.60
7232;DHT22;3657;49.630;11.018;2022-09-23T11:50:45;20.30;75.70
7232;DHT22;3657;49.630;11.018;2022-09-23T11:53:19;20.60;91.70
7232;DHT22;3657;49.630;11.018;2022-09-23T11:55:51;20.90;86.50
7232;DHT22;3657;49.630;11.018;2022-09-23T11:58:23;20.70;85.50
7232;DHT22;3657;49.630;11.018;2022-09-23T12:00:55;20.80;91.60
7232;DHT22;3657;49.630;11.018;2022-09-23T12:03:30;21.10;92.70
7232;DHT22;3657;49.630;11.018;2022-09-23T12:06:02;21.30;92.80
7232;DHT22;3657;49.630;11.018;2022-09-23T12:08:33;21.30;93.10
7232;DHT22;3657;49.630;11.018;2022-09-23T12:11:07;21.00;87.20
7232;DHT22;3657;49.630;11.018;2022-09-23T12:13:47;20.90;92.70
7232;DHT22;3657;49.630;11.018;2022-09-23T12:16:37;21.00;93.60
7232;DHT22;3657;49.630;11.018;2022-09-23T12:19:21;21.30;92.90
7232;DHT22;3657;49.630;11.018;2022-09-23T12:22:03;21.60;92.50
7232;DHT22;3657;49.630;11.018;2022-09-23T12:24:55;21.60;93.20
7232;DHT22;3657;49.630;11.018;2022-09-23T12:27:28;21.30;88.90
7232;DHT22;3657;49.630;11.018;2022-09-23T12:29:58;20.60;80.90
7232;DHT22;3657;49.630;11.018;2022-09-23T12:32:27;20.40;78.00
7232;DHT22;3657;49.630;11.018;2022-09-23T12:34:54;20.40;86.50
7232;DHT22;3657;49.630;11.018;2022-09-23T12:37:28;20.50;78.10
7232;DHT22;3657;49.630;11.018;2022-09-23T12:39:59;20.60;85.10
7232;DHT22;3657;49.630;11.018;2022-09-23T12:42:27;20.10;77.30
7232;DHT22;3657;49.630;11.018;2022-09-23T12:45:31;20.40;91.80
7232;DHT22;3657;49.630;11.018;2022-09-23T12:47:59;20.70;92.50
7232;DHT22;3657;49.630;11.018;2022-09-23T12:50:49;21.10;93.50
7232;DHT22;3657;49.630;11.018;2022-09-23T12:53:54;21.20;88.10
7232;DHT22;3657;49.630;11.018;2022-09-23T12:56:56;21.30;93.80
7232;DHT22;3657;49.630;11.018;2022-09-23T12:59:25;21.50;94.30
7232;DHT22;3657;49.630;11.018;2022-09-23T13:01:54;21.40;91.00
7232;DHT22;3657;49.630;11.018;2022-09-23T13:04:42;21.40;86.10
7232;DHT22;3657;49.630;11.018;2022-09-23T13:07:29;21.30;84.10
7232;DHT22;3657;49.630;11.018;2022-09-23T13:10:05;21.20;88.90
7232;DHT22;3657;49.630;11.018;2022-09-23T13:12:36;21.30;90.70
7232;DHT22;3657;49.630;11.018;2022-09-23T13:15:14;21.60;93.10
7232;DHT22;3657;49.630;11.018;2022-09-23T13:17:43;21.80;91.90
7232;DHT22;3657;49.630;11.018;2022-09-23T13:20:31;21.60;92.50
7232;DHT22;3657;49.630;11.018;2022-09-23T13:25:57;21.40;84.90
7232;DHT22;3657;49.630;11.018;2022-09-23T13:28:28;21.20;90.20
7232;DHT22;3657;49.630;11.018;2022-09-23T13:30:57;21.30;91.80
7232;DHT22;3657;49.630;11.018;2022-09-23T13:33:29;21.60;92.80
7232;DHT22;3657;49.630;11.018;2022-09-23T13:35:59;21.80;92.90
7232;DHT22;3657;49.630;11.018;2022-09-23T13:38:29;22.10;93.10
7232;DHT22;3657;49.630;11.018;2022-09-23T13:40:59;22.30;93.80
7232;DHT22;3657;49.630;11.018;2022-09-23T13:43:30;22.40;93.80
7232;DHT22;3657;49.630;11.018;2022-09-23T13:45:58;22.40;94.30
7232;DHT22;3657;49.630;11.018;2022-09-23T13:48:27;22.40;94.20
7232;DHT22;3657;49.630;11.018;2022-09-23T13:50:54;22.30;82.70
7232;DHT22;3657;49.630;11.018;2022-09-23T13:53:23;22.00;82.30
7232;DHT22;3657;49.630;11.018;2022-09-23T13:55:59;21.90;91.40
7232;DHT22;3657;49.630;11.018;2022-09-23T13:58:29;22.00;91.30
7232;DHT22;3657;49.630;11.018;2022-09-23T14:00:56;22.10;93.80
7232;DHT22;3657;49.630;11.018;2022-09-23T14:03:27;22.30;92.70
7232;DHT22;3657;49.630;11.018;2022-09-23T14:05:56;22.30;94.40
7232;DHT22;3657;49.630;11.018;2022-09-23T14:08:24;22.40;86.90
7232;DHT22;3657;49.630;11.018;2022-09-23T14:10:51;22.40;92.90
7232;DHT22;3657;49.630;11.018;2022-09-23T14:13:22;22.40;94.20
7232;DHT22;3657;49.630;11.018;2022-09-23T14:15:51;22.40;94.40
7232;DHT22;3657;49.630;11.018;2022-09-23T14:18:29;22.40;94.50
7232;DHT22;3657;49.630;11.018;2022-09-23T14:20:57;22.40;95.10
7232;DHT22;3657;49.630;11.018;2022-09-23T14:23:24;22.40;94.40
7232;DHT22;3657;49.630;11.018;2022-09-23T14:25:51;22.40;94.70
7232;DHT22;3657;49.630;11.018;2022-09-23T14:28:20;22.50;93.80
7232;DHT22;3657;49.630;11.018;2022-09-23T14:30:50;22.60;93.90
7232;DHT22;3657;49.630;11.018;2022-09-23T14:33:19;22.60;92.20
7232;DHT22;3657;49.630;11.018;2022-09-23T14:35:51;22.60;93.60
7232;DHT22;3657;49.630;11.018;2022-09-23T14:38:24;22.50;93.70
7232;DHT22;3657;49.630;11.018;2022-09-23T14:41:18;22.40;94.20
7232;DHT22;3657;49.630;11.018;2022-09-23T14:43:56;22.30;94.40
7232;DHT22;3657;49.630;11.018;2022-09-23T14:46:25;22.30;94.40
7232;DHT22;3657;49.630;11.018;2022-09-23T14:48:58;22.20;94.30
7232;DHT22;3657;49.630;11.018;2022-09-23T14:51:39;22.10;92.20
7232;DHT22;3657;49.630;11.018;2022-09-23T14:54:30;22.20;91.60
7232;DHT22;3657;49.630;11.018;2022-09-23T14:56:58;22.20;92.70
7232;DHT22;3657;49.630;11.018;2022-09-23T14:59:27;22.10;93.30
7232;DHT22;3657;49.630;11.018;2022-09-23T15:01:54;22.10;92.80
7232;DHT22;3657;49.630;11.018;2022-09-23T15:04:31;22.00;93.40
7232;DHT22;3657;49.630;11.018;2022-09-23T15:07:03;22.00;90.80
7232;DHT22;3657;49.630;11.018;2022-09-23T15:09:34;21.90;93.00
7232;DHT22;3657;49.630;11.018;2022-09-23T15:12:04;21.80;92.10
7232;DHT22;3657;49.630;11.018;2022-09-23T15:14:38;21.80;93.30
7232;DHT22;3657;49.630;11.018;2022-09-23T15:17:12;21.80;92.70
7232;DHT22;3657;49.630;11.018;2022-09-23T15:19:41;21.70;90.40
7232;DHT22;3657;49.630;11.018;2022-09-23T15:22:09;21.60;92.60
7232;DHT22;3657;49.630;11.018;2022-09-23T15:24:40;21.50;93.00
7232;DHT22;3657;49.630;11.018;2022-09-23T15:27:23;21.40;92.90
7232;DHT22;3657;49.630;11.018;2022-09-23T15:29:51;21.30;93.10
7232;DHT22;3657;49.630;11.018;2022-09-23T15:32:18;21.20;93.50
7232;DHT22;3657;49.630;11.018;2022-09-23T15:34:47;21.20;93.60
7232;DHT22;3657;49.630;11.018;2022-09-23T15:37:15;21.10;93.70
7232;DHT22;3657;49.630;11.018;2022-09-23T15:39:43;21.10;93.50
7232;DHT22;3657;49.630;11.018;2022-09-23T15:42:09;21.00;93.60
7232;DHT22;3657;49.630;11.018;2022-09-23T15:44:36;20.90;86.60
7232;DHT22;3657;49.630;11.018;2022-09-23T15:47:03;20.70;86.80
7232;DHT22;3657;49.630;11.018;2022-09-23T15:49:32;20.60;92.30
7232;DHT22;3657;49.630;11.018;2022-09-23T15:52:02;20.60;92.50
7232;DHT22;3657;49.630;11.018;2022-09-23T15:54:31;20.60;92.60
7232;DHT22;3657;49.630;11.018;2022-09-23T15:56:58;20.70;92.80
7232;DHT22;3657;49.630;11.018;2022-09-23T15:59:25;20.60;92.30
7232;DHT22;3657;49.630;11.018;2022-09-23T16:01:53;20.60;92.50
7232;DHT22;3657;49.630;11.018;2022-09-23T16:04:21;20.40;91.70
7232;DHT22;3657;49.630;11.018;2022-09-23T16:06:48;20.40;91.90
7232;DHT22;3657;49.630;11.018;2022-09-23T16:09:14;20.30;92.20
7232;DHT22;3657;49.630;11.018;2022-09-23T16:11:45;20.30;92.70
7232;DHT22;3657;49.630;11.018;2022-09-23T16:14:14;20.20;92.90
7232;DHT22;3657;49.630;11.018;2022-09-23T16:16:41;20.10;92.70
7232;DHT22;3657;49.630;11.018;2022-09-23T16:19:09;20.10;92.90
7232;DHT22;3657;49.630;11.018;2022-09-23T16:21:36;20.10;92.30
7232;DHT22;3657;49.630;11.018;2022-09-23T16:24:08;20.00;92.00
7232;DHT22;3657;49.630;11.018;2022-09-23T16:26:39;19.90;93.00
7232;DHT22;3657;49.630;11.018;2022-09-23T16:29:09;19.80;90.20